createdAt,value
2023-03-11T00:01:55.834Z,98455.69
2023-03-11T00:04:57.917Z,98458.31
2023-03-11T00:08:00.638Z,98448.72
2023-03-11T00:11:02.582Z,98465.22
2023-03-11T00:14:04.437Z,98453.06
2023-03-11T00:17:06.459Z,98451.84
2023-03-11T00:20:15.299Z,98439.97
2023-03-11T00:23:17.541Z,98440.06
2023-03-11T00:26:19.599Z,98451.25
2023-03-11T00:29:22.368Z,98447.50
2023-03-11T00:32:24.583Z,98437.81
2023-03-11T00:35:30.824Z,98440.66
2023-03-11T00:38:33.563Z,98437.16
2023-03-11T00:41:35.808Z,98454.97
2023-03-11T00:44:38.156Z,98441.38
2023-03-11T00:47:40.522Z,98451.69
2023-03-11T00:50:43.190Z,98447.50
2023-03-11T00:53:45.342Z,98442.56
2023-03-11T00:56:49.967Z,98436.94
2023-03-11T00:59:53.522Z,98451.34
2023-03-11T01:02:56.631Z,98446.53
2023-03-11T01:06:01.305Z,98449.66
2023-03-11T01:09:04.894Z,98431.91
2023-03-11T01:12:07.479Z,98431.91
2023-03-11T01:15:16.787Z,98439.38
2023-03-11T01:18:22.354Z,98439.81
2023-03-11T01:21:24.489Z,98433.63
2023-03-11T01:24:27.139Z,98439.69
2023-03-11T01:30:46.401Z,98431.25
2023-03-11T01:33:49.152Z,98429.09
2023-03-11T01:36:51.770Z,98423.72
2023-03-11T01:39:53.972Z,98420.97
2023-03-11T01:42:56.731Z,98428.00
2023-03-11T01:45:58.810Z,98416.94
2023-03-11T01:49:02.889Z,98421.81
2023-03-11T01:52:10.168Z,98429.81
2023-03-11T01:55:13.849Z,98418.19
2023-03-11T01:58:21.112Z,98432.72
2023-03-11T02:01:24.320Z,98439.97
2023-03-11T02:04:33.110Z,98440.81
2023-03-11T02:07:35.276Z,98450.03
2023-03-11T02:10:42.029Z,98444.53
2023-03-11T02:13:46.534Z,98455.25
2023-03-11T02:16:48.476Z,98451.44
2023-03-11T02:20:06.375Z,98449.34
2023-03-11T02:23:09.053Z,98445.13
2023-03-11T02:26:21.548Z,98446.16
2023-03-11T02:29:27.585Z,98437.50
2023-03-11T02:32:31.198Z,98424.22
2023-03-11T02:35:33.186Z,98438.97
2023-03-11T02:38:35.364Z,98426.09
2023-03-11T02:41:40.430Z,98427.91
2023-03-11T02:44:47.245Z,98437.34
2023-03-11T02:47:49.994Z,98434.16
2023-03-11T02:50:52.367Z,98445.34
2023-03-11T02:53:59.740Z,98438.50
2023-03-11T02:57:01.610Z,98464.63
2023-03-11T03:00:11.023Z,98448.13
2023-03-11T03:03:15.818Z,98446.31
2023-03-11T03:06:17.871Z,98455.19
2023-03-11T03:09:19.815Z,98468.78
2023-03-11T03:12:22.839Z,98454.31
2023-03-11T03:15:24.877Z,98469.25
2023-03-11T03:18:29.670Z,98479.72
2023-03-11T03:21:31.698Z,98486.38
2023-03-11T03:24:33.544Z,98492.63
2023-03-11T03:27:35.490Z,98490.78
2023-03-11T03:30:38.367Z,98477.72
2023-03-11T03:33:40.420Z,98479.56
2023-03-11T03:36:42.527Z,98492.22
2023-03-11T03:39:44.419Z,98486.63
2023-03-11T03:42:46.475Z,98518.81
2023-03-11T03:46:04.468Z,98476.63
2023-03-11T03:49:06.668Z,98496.41
2023-03-11T03:52:10.496Z,98497.22
2023-03-11T03:55:12.378Z,98514.56
2023-03-11T03:58:14.279Z,98519.41
2023-03-11T04:01:16.396Z,98508.94
2023-03-11T04:04:18.532Z,98531.13
2023-03-11T04:07:20.841Z,98528.31
2023-03-11T04:10:22.786Z,98531.94
2023-03-11T04:13:24.785Z,98531.19
2023-03-11T04:16:26.715Z,98561.94
2023-03-11T04:19:28.499Z,98554.94
2023-03-11T04:22:30.530Z,98578.06
2023-03-11T04:25:35.456Z,98582.69
2023-03-11T04:28:37.363Z,98577.47
2023-03-11T04:31:40.470Z,98575.69
2023-03-11T04:34:42.690Z,98567.41
2023-03-11T04:37:44.593Z,98563.84
2023-03-11T04:40:46.664Z,98570.44
2023-03-11T04:43:48.518Z,98598.41
2023-03-11T04:46:51.855Z,98629.75
2023-03-11T04:49:56.276Z,98604.88
2023-03-11T04:52:58.409Z,98578.75
2023-03-11T04:56:00.301Z,98609.47
2023-03-11T04:59:03.780Z,98610.25
2023-03-11T05:02:05.788Z,98613.63
2023-03-11T05:05:12.135Z,98621.22
2023-03-11T05:08:14.102Z,98611.19
2023-03-11T05:11:16.037Z,98610.34
2023-03-11T05:14:17.947Z,98623.31
2023-03-11T05:17:20.138Z,98616.91
2023-03-11T05:20:22.098Z,98643.94
2023-03-11T05:23:25.677Z,98610.44
2023-03-11T05:26:29.623Z,98632.00
2023-03-11T05:29:31.944Z,98626.16
2023-03-11T05:32:34.624Z,98634.16
2023-03-11T05:35:36.638Z,98647.47
2023-03-11T05:38:39.728Z,98643.59
2023-03-11T05:41:43.677Z,98645.84
2023-03-11T05:44:45.676Z,98660.47
2023-03-11T05:47:47.748Z,98654.47
2023-03-11T05:50:49.730Z,98671.72
2023-03-11T05:53:52.271Z,98669.38
2023-03-11T05:56:54.290Z,98672.19
2023-03-11T05:59:57.605Z,98664.81
2023-03-11T06:03:01.063Z,98662.22
2023-03-11T06:06:06.610Z,98706.63
2023-03-11T06:09:13.382Z,98686.81
2023-03-11T06:12:16.035Z,98666.63
2023-03-11T06:15:18.080Z,98675.84
2023-03-11T06:18:21.359Z,98677.19
2023-03-11T06:21:24.591Z,98672.31
2023-03-11T06:24:28.458Z,98694.00
2023-03-11T06:27:33.454Z,98717.38
2023-03-11T06:30:35.693Z,98704.06
2023-03-11T06:33:38.352Z,98720.09
2023-03-11T06:36:41.116Z,98723.81
2023-03-11T06:39:43.364Z,98745.34
2023-03-11T06:42:48.505Z,98741.22
2023-03-11T06:45:50.476Z,98734.41
2023-03-11T06:48:52.998Z,98734.28
2023-03-11T06:51:54.879Z,98768.91
2023-03-11T06:54:58.972Z,98772.28
2023-03-11T06:58:01.209Z,98769.19
2023-03-11T07:01:18.785Z,98776.22
2023-03-11T07:04:21.410Z,98764.50
2023-03-11T07:07:23.938Z,98762.91
2023-03-11T07:10:26.517Z,98772.50
2023-03-11T07:13:29.809Z,98787.69
2023-03-11T07:16:31.851Z,98763.56
2023-03-11T07:19:34.110Z,98785.38
2023-03-11T07:22:36.055Z,98754.34
2023-03-11T07:25:38.017Z,98785.47
2023-03-11T07:28:41.204Z,98802.44
2023-03-11T07:31:43.827Z,98784.50
2023-03-11T07:34:48.505Z,98748.00
2023-03-11T07:37:51.216Z,98789.28
2023-03-11T07:41:00.429Z,98804.88
2023-03-11T07:44:06.346Z,98773.94
2023-03-11T07:47:09.650Z,98770.66
2023-03-11T07:50:12.590Z,98753.03
2023-03-11T07:53:16.411Z,98792.91
2023-03-11T07:56:19.553Z,98796.84
2023-03-11T07:59:21.452Z,98801.88
2023-03-11T08:02:23.741Z,98799.97
2023-03-11T08:05:25.757Z,98808.94
2023-03-11T08:08:29.326Z,98826.88
2023-03-11T08:11:34.096Z,98827.06
2023-03-11T08:14:36.066Z,98817.16
2023-03-11T08:17:39.017Z,98860.47
2023-03-11T08:20:41.318Z,98862.75
2023-03-11T08:23:46.774Z,98898.34
2023-03-11T08:26:48.904Z,98903.03
2023-03-11T08:29:51.065Z,98908.44
2023-03-11T08:32:56.895Z,98895.47
2023-03-11T08:35:58.942Z,98913.59
2023-03-11T08:39:01.379Z,98934.09
2023-03-11T08:42:05.141Z,98913.09
2023-03-11T08:45:09.872Z,98913.97
2023-03-11T08:48:13.100Z,98920.75
2023-03-11T08:51:16.677Z,98906.41
2023-03-11T08:54:19.054Z,98909.03
2023-03-11T08:57:21.131Z,98876.84
2023-03-11T09:00:23.585Z,98872.38
2023-03-11T09:03:26.453Z,98848.88
2023-03-11T09:06:30.603Z,98846.47
2023-03-11T09:09:33.296Z,98864.50
2023-03-11T09:13:12.572Z,98873.91
2023-03-11T09:16:26.259Z,98875.53
2023-03-11T09:19:28.968Z,98872.38
2023-03-11T09:22:31.800Z,98885.38
2023-03-11T09:25:34.255Z,98899.56
2023-03-11T09:28:36.307Z,98927.16
2023-03-11T09:31:41.388Z,98893.56
2023-03-11T09:34:43.834Z,98903.66
2023-03-11T09:37:45.705Z,98896.50
2023-03-11T09:41:14.095Z,98904.88
2023-03-11T09:44:44.290Z,98883.38
2023-03-11T09:48:23.865Z,98940.19
2023-03-11T09:51:36.541Z,98897.72
2023-03-11T09:54:43.379Z,98916.69
2023-03-11T09:57:45.412Z,98896.41
2023-03-11T10:00:48.400Z,98905.00
2023-03-11T10:03:54.775Z,98904.00
2023-03-11T10:07:00.180Z,98895.59
2023-03-11T10:10:03.068Z,98918.28
2023-03-11T10:13:25.309Z,98892.47
2023-03-11T10:16:55.020Z,98925.03
2023-03-11T10:20:14.569Z,98929.78
2023-03-11T10:23:41.816Z,98927.47
2023-03-11T10:26:52.380Z,98929.09
2023-03-11T10:30:09.566Z,98953.88
2023-03-11T10:33:25.269Z,98947.56
2023-03-11T10:36:36.215Z,98970.28
2023-03-11T10:39:38.916Z,98970.00
2023-03-11T10:42:46.060Z,99012.06
2023-03-11T10:45:52.067Z,98997.28
2023-03-11T10:48:55.409Z,98990.25
2023-03-11T10:51:58.732Z,98998.69
2023-03-11T10:55:03.240Z,98995.50
2023-03-11T10:58:11.379Z,99015.16
2023-03-11T11:01:17.250Z,99021.81
2023-03-11T11:04:37.220Z,99003.66
2023-03-11T11:07:42.683Z,99020.09
2023-03-11T11:11:00.815Z,99029.25
2023-03-11T11:14:03.400Z,99015.50
2023-03-11T11:17:05.625Z,99000.94
2023-03-11T11:20:18.141Z,99027.59
2023-03-11T11:23:56.842Z,98997.69
2023-03-11T11:27:05.003Z,99046.25
2023-03-11T11:30:17.726Z,99049.31
2023-03-11T11:33:26.932Z,99033.50
2023-03-11T11:36:32.255Z,99054.44
2023-03-11T11:39:52.127Z,99032.53
2023-03-11T11:43:14.413Z,99045.47
2023-03-11T11:46:38.990Z,99043.44
2023-03-11T11:49:58.838Z,99036.34
2023-03-11T11:53:25.935Z,99037.97
2023-03-11T11:56:29.447Z,99029.03
2023-03-11T11:59:31.874Z,99016.84
2023-03-11T12:02:51.038Z,99033.69
2023-03-11T12:05:58.976Z,99051.28
2023-03-11T12:09:30.216Z,99046.72
2023-03-11T12:12:32.274Z,99033.88
2023-03-11T12:15:41.844Z,99015.16
2023-03-11T12:18:54.144Z,99019.19
2023-03-11T12:22:20.825Z,99025.78
2023-03-11T12:25:35.460Z,99038.09
2023-03-11T12:28:59.203Z,99026.16
2023-03-11T12:32:03.013Z,99037.50
2023-03-11T12:35:23.679Z,99053.41
2023-03-11T12:38:36.320Z,99055.91
2023-03-11T12:41:42.373Z,99052.97
2023-03-11T12:44:46.808Z,99065.88
2023-03-11T12:48:27.455Z,99062.28
2023-03-11T12:51:39.685Z,99060.13
2023-03-11T12:54:41.998Z,99098.66
2023-03-11T12:57:47.200Z,99091.00
2023-03-11T13:00:54.968Z,99110.59
2023-03-11T13:04:15.319Z,99093.97
2023-03-11T13:07:40.400Z,99110.34
2023-03-11T13:10:45.318Z,99107.53
2023-03-11T13:13:48.225Z,99079.81
2023-03-11T13:16:51.275Z,99102.72
2023-03-11T13:20:03.449Z,99108.53
2023-03-11T13:23:14.916Z,99125.72
2023-03-11T13:26:45.002Z,99134.16
2023-03-11T13:30:00.920Z,99149.88
2023-03-11T13:33:49.182Z,99138.28
2023-03-11T13:37:21.146Z,99160.56
2023-03-11T13:40:40.303Z,99148.25
2023-03-11T13:43:48.857Z,99164.81
2023-03-11T13:46:56.997Z,99182.75
2023-03-11T13:50:02.136Z,99233.50
2023-03-11T13:53:12.059Z,99210.91
2023-03-11T13:56:22.128Z,99237.09
2023-03-11T13:59:27.696Z,99209.53
2023-03-11T14:02:33.607Z,99204.81
2023-03-11T14:05:38.855Z,99233.97
2023-03-11T14:08:42.761Z,99223.28
2023-03-11T14:11:48.130Z,99224.94
2023-03-11T14:15:00.918Z,99222.97
2023-03-11T14:18:29.504Z,99220.44
2023-03-11T14:21:31.991Z,99213.56
2023-03-11T14:24:34.712Z,99234.78
2023-03-11T14:27:45.259Z,99236.78
2023-03-11T14:30:59.238Z,99261.78
2023-03-11T14:34:07.761Z,99285.22
2023-03-11T14:37:26.180Z,99256.66
2023-03-11T14:40:32.768Z,99270.06
2023-03-11T14:43:41.719Z,99260.56
2023-03-11T14:46:46.896Z,99263.13
2023-03-11T14:49:53.654Z,99264.38
2023-03-11T14:53:04.883Z,99281.56
2023-03-11T14:56:16.116Z,99259.91
2023-03-11T14:59:29.692Z,99283.25
2023-03-11T15:02:45.190Z,99293.91
2023-03-11T15:06:00.114Z,99300.69
2023-03-11T15:09:09.132Z,99297.59
2023-03-11T15:12:34.259Z,99319.22
2023-03-11T15:15:36.331Z,99310.56
2023-03-11T15:18:38.910Z,99313.34
2023-03-11T15:21:48.354Z,99323.41
2023-03-11T15:24:57.323Z,99319.72
2023-03-11T15:28:43.018Z,99315.22
2023-03-11T15:31:49.112Z,99340.22
2023-03-11T15:35:04.386Z,99341.06
2023-03-11T15:38:22.116Z,99350.13
2023-03-11T15:41:24.580Z,99344.81
2023-03-11T15:44:40.861Z,99358.91
2023-03-11T15:47:44.099Z,99350.78
2023-03-11T15:50:55.556Z,99398.25
2023-03-11T15:53:57.537Z,99380.41
2023-03-11T15:57:04.408Z,99376.53
2023-03-11T16:00:18.094Z,99393.09
2023-03-11T16:03:21.303Z,99375.09
2023-03-11T16:06:26.087Z,99404.81
2023-03-11T16:09:28.684Z,99375.56
2023-03-11T16:12:31.315Z,99381.88
2023-03-11T16:15:39.981Z,99404.47
2023-03-11T16:18:42.235Z,99389.22
2023-03-11T16:21:50.703Z,99383.56
2023-03-11T16:24:55.181Z,99411.69
2023-03-11T16:27:58.971Z,99419.44
2023-03-11T16:31:09.664Z,99442.69
2023-03-11T16:34:12.074Z,99435.38
2023-03-11T16:37:21.358Z,99457.63
2023-03-11T16:40:26.749Z,99452.91
2023-03-11T16:43:30.932Z,99455.50
2023-03-11T16:46:33.053Z,99473.34
2023-03-11T16:49:35.652Z,99471.91
2023-03-11T16:52:38.360Z,99464.09
2023-03-11T16:55:40.454Z,99491.22
2023-03-11T16:58:42.724Z,99506.50
2023-03-11T17:01:46.865Z,99515.75
2023-03-11T17:04:48.956Z,99508.59
2023-03-11T17:08:01.896Z,99520.13
2023-03-11T17:11:28.386Z,99524.00
2023-03-11T17:14:34.718Z,99541.34
2023-03-11T17:17:37.085Z,99550.13
2023-03-11T17:20:41.074Z,99544.41
2023-03-11T17:23:43.967Z,99539.19
2023-03-11T17:26:45.887Z,99548.63
2023-03-11T17:29:48.050Z,99551.13
2023-03-11T17:32:51.481Z,99566.56
2023-03-11T17:36:07.881Z,99574.50
2023-03-11T17:39:11.125Z,99585.53
2023-03-11T17:42:13.616Z,99597.84
2023-03-11T17:45:15.973Z,99604.78
2023-03-11T17:48:18.527Z,99601.53
2023-03-11T17:51:24.148Z,99616.13
2023-03-11T17:54:28.959Z,99609.00
2023-03-11T17:57:44.472Z,99624.06
2023-03-11T18:00:47.467Z,99631.03
2023-03-11T18:03:50.863Z,99629.84
2023-03-11T18:06:54.716Z,99635.03
2023-03-11T18:09:59.904Z,99636.25
2023-03-11T18:13:02.233Z,99640.63
2023-03-11T18:16:14.856Z,99641.56
2023-03-11T18:19:17.179Z,99656.31
2023-03-11T18:22:20.262Z,99649.34
2023-03-11T18:25:24.663Z,99642.31
2023-03-11T18:28:27.766Z,99663.13
2023-03-11T18:31:31.922Z,99673.72
2023-03-11T18:34:36.029Z,99668.19
2023-03-11T18:37:38.443Z,99675.53
2023-03-11T18:40:41.088Z,99673.47
2023-03-11T18:43:43.600Z,99696.22
2023-03-11T18:46:48.624Z,99702.75
2023-03-11T18:49:55.268Z,99683.72
2023-03-11T18:52:57.238Z,99681.78
2023-03-11T18:56:02.348Z,99689.44
2023-03-11T18:59:12.434Z,99694.91
2023-03-11T19:02:14.743Z,99724.94
2023-03-11T19:05:19.563Z,99724.53
2023-03-11T19:08:21.915Z,99705.41
2023-03-11T19:11:25.984Z,99727.22
2023-03-11T19:14:31.390Z,99728.19
2023-03-11T19:17:33.495Z,99730.50
2023-03-11T19:20:36.983Z,99745.28
2023-03-11T19:23:40.994Z,99728.13
2023-03-11T19:26:46.113Z,99744.72
2023-03-11T19:29:49.803Z,99742.69
2023-03-11T19:32:53.052Z,99747.44
2023-03-11T19:36:02.023Z,99760.41
2023-03-11T19:39:05.720Z,99770.84
2023-03-11T19:42:08.887Z,99760.00
2023-03-11T19:45:11.752Z,99760.06
2023-03-11T19:48:16.364Z,99761.56
2023-03-11T19:51:20.272Z,99746.41
2023-03-11T19:54:26.946Z,99752.41
2023-03-11T19:57:29.214Z,99779.78
2023-03-11T20:00:32.355Z,99778.19
2023-03-11T20:03:36.067Z,99754.78
2023-03-11T20:06:44.226Z,99746.84
2023-03-11T20:09:46.672Z,99751.59
2023-03-11T20:13:01.453Z,99740.69
2023-03-11T20:16:09.865Z,99766.09
2023-03-11T20:19:12.471Z,99740.47
2023-03-11T20:22:14.931Z,99751.00
2023-03-11T20:25:17.244Z,99740.25
2023-03-11T20:28:19.536Z,99749.53
2023-03-11T20:31:23.967Z,99744.91
2023-03-11T20:34:27.044Z,99735.38
2023-03-11T20:37:30.582Z,99740.53
2023-03-11T20:40:32.879Z,99763.19
2023-03-11T20:43:36.388Z,99742.34
2023-03-11T20:46:40.389Z,99755.84
2023-03-11T20:49:43.945Z,99765.38
2023-03-11T20:52:45.882Z,99765.25
2023-03-11T20:55:49.534Z,99775.34
2023-03-11T20:58:52.722Z,99780.94
2023-03-11T21:01:54.894Z,99792.81
2023-03-11T21:04:59.809Z,99790.22
2023-03-11T21:08:02.946Z,99791.88
2023-03-11T21:11:05.892Z,99779.75
2023-03-11T21:14:08.766Z,99790.06
2023-03-11T21:17:11.286Z,99787.34
2023-03-11T21:20:14.191Z,99794.28
2023-03-11T21:23:16.744Z,99800.56
2023-03-11T21:26:18.996Z,99816.75
2023-03-11T21:29:20.964Z,99818.53
2023-03-11T21:32:24.466Z,99809.00
2023-03-11T21:35:28.810Z,99814.59
2023-03-11T21:38:32.036Z,99828.63
2023-03-11T21:41:34.540Z,99828.75
2023-03-11T21:44:36.902Z,99823.69
2023-03-11T21:47:39.163Z,99836.91
2023-03-11T21:50:41.992Z,99829.13
2023-03-11T21:53:44.567Z,99843.84
2023-03-11T21:56:46.618Z,99833.25
2023-03-11T21:59:49.199Z,99842.63
2023-03-11T22:02:52.959Z,99844.00
2023-03-11T22:06:00.790Z,99844.16
2023-03-11T22:09:03.046Z,99850.13
2023-03-11T22:12:05.922Z,99850.56
2023-03-11T22:15:08.381Z,99847.41
2023-03-11T22:18:10.919Z,99857.50
2023-03-11T22:21:16.815Z,99844.69
2023-03-11T22:24:18.815Z,99864.31
2023-03-11T22:27:21.182Z,99860.09
2023-03-11T22:30:25.921Z,99864.03
2023-03-11T22:33:27.880Z,99868.13
2023-03-11T22:36:29.938Z,99880.38
2023-03-11T22:39:35.424Z,99900.13
2023-03-11T22:42:38.102Z,99902.94
2023-03-11T22:45:40.705Z,99915.31
2023-03-11T22:48:44.096Z,99930.72
2023-03-11T22:51:46.524Z,99911.50
2023-03-11T22:54:49.842Z,99935.03
2023-03-11T22:57:51.858Z,99922.81
2023-03-11T23:00:53.926Z,99919.22
2023-03-11T23:03:56.096Z,99953.53
2023-03-11T23:06:58.347Z,99941.94
2023-03-11T23:10:00.445Z,99940.88
2023-03-11T23:13:02.594Z,99941.03
2023-03-11T23:16:12.248Z,99947.63
2023-03-11T23:19:14.515Z,99943.28
2023-03-11T23:22:16.983Z,99948.88
2023-03-11T23:25:19.518Z,99948.31
2023-03-11T23:28:21.719Z,99954.88
2023-03-11T23:31:27.824Z,99956.78
2023-03-11T23:34:29.967Z,99957.59
2023-03-11T23:37:31.912Z,99966.03
2023-03-11T23:40:34.000Z,99957.72
2023-03-11T23:43:36.735Z,99972.56
2023-03-11T23:46:39.908Z,99980.09
2023-03-11T23:49:42.679Z,99981.66
2023-03-11T23:52:46.773Z,99982.59
2023-03-11T23:55:49.344Z,99989.13
2023-03-11T23:58:51.335Z,100000.41
